Time;durP1;ratioP1;P1;durP2;ratioP2;P2;SDS_P1;SDS_P2;PMS_P1;PMS_P2;Temp;Humidity;BMP_temperature;BMP_pressure;BME280_temperature;BME280_humidity;BME280_pressure;Samples;Min_cycle;Max_cycle;Signal;HPM_P1;HPM_P2
2023/08/29 00:02:06;;;;;;;;;;;17.40;85.20;;;;;;5058998;28;19995;-75
2023/08/29 00:04:33;;;;;;;;;;;17.40;85.10;;;;;;5059526;28;20441;-74
2023/08/29 00:06:59;;;;;;;;;;;17.40;85.00;;;;;;5058950;28;19991;-75
2023/08/29 00:09:26;;;;;;;;;;;17.40;85.00;;;;;;5057768;28;19982;-75
2023/08/29 00:11:52;;;;;;;;;;;17.40;85.10;;;;;;5057583;28;19979;-75
2023/08/29 00:14:19;;;;;;;;;;;17.40;85.10;;;;;;5061560;28;20419;-75
2023/08/29 00:16:45;;;;;;;;;;;17.40;85.10;;;;;;5058685;28;20673;-75
2023/08/29 00:19:15;;;;;;;;;;;17.30;85.00;;;;;;5060730;28;19975;-75
2023/08/29 00:21:41;;;;;;;;;;;17.30;85.00;;;;;;5058698;28;20483;-75
2023/08/29 00:24:08;;;;;;;;;;;17.30;85.10;;;;;;5053082;28;19979;-75
2023/08/29 00:26:35;;;;;;;;;;;17.30;85.20;;;;;;5053167;28;19996;-74
2023/08/29 00:29:01;;;;;;;;;;;17.30;85.20;;;;;;5060852;28;19979;-75
2023/08/29 00:31:28;;;;;;;;;;;17.30;85.20;;;;;;5053078;28;21516;-74
2023/08/29 00:33:55;;;;;;;;;;;17.30;85.20;;;;;;5057729;28;20364;-74
2023/08/29 00:36:23;;;;;;;;;;;17.30;85.20;;;;;;5054023;28;20485;-74
2023/08/29 00:38:49;;;;;;;;;;;17.30;85.20;;;;;;5056406;28;20353;-75
2023/08/29 00:41:16;;;;;;;;;;;17.30;85.30;;;;;;5053597;28;20689;-75
2023/08/29 00:43:42;;;;;;;;;;;17.30;85.20;;;;;;5057269;28;20336;-74
2023/08/29 00:46:09;;;;;;;;;;;17.30;85.30;;;;;;5060143;28;20077;-74
2023/08/29 00:48:36;;;;;;;;;;;17.20;85.20;;;;;;5063062;28;19971;-74
2023/08/29 00:51:02;;;;;;;;;;;17.20;85.30;;;;;;5063936;28;19979;-75
2023/08/29 00:53:30;;;;;;;;;;;17.20;85.30;;;;;;5063269;28;20029;-75
2023/08/29 00:55:57;;;;;;;;;;;17.20;85.40;;;;;;5058589;28;20634;-75
2023/08/29 00:58:23;;;;;;;;;;;17.20;85.40;;;;;;5059715;28;19976;-75
2023/08/29 01:00:50;;;;;;;;;;;17.20;85.40;;;;;;5061116;28;19991;-75
2023/08/29 01:03:17;;;;;;;;;;;17.20;85.50;;;;;;5065030;28;19975;-76
2023/08/29 01:05:43;;;;;;;;;;;17.20;85.50;;;;;;5058371;28;19976;-75
2023/08/29 01:08:10;;;;;;;;;;;17.20;85.50;;;;;;5059900;28;20001;-75
2023/08/29 01:10:42;;;;;;;;;;;17.20;85.60;;;;;;5061864;28;19986;-75
2023/08/29 01:13:11;;;;;;;;;;;17.20;85.50;;;;;;5059972;28;19983;-75
2023/08/29 01:15:39;;;;;;;;;;;17.20;85.60;;;;;;5063515;28;20094;-74
2023/08/29 01:18:08;;;;;;;;;;;17.20;85.60;;;;;;5061195;28;19992;-75
2023/08/29 01:20:36;;;;;;;;;;;17.10;85.50;;;;;;5063064;28;20365;-75
2023/08/29 01:23:08;;;;;;;;;;;17.10;85.50;;;;;;5062286;28;19996;-75
2023/08/29 01:25:38;;;;;;;;;;;17.10;85.60;;;;;;5062511;28;19975;-75
2023/08/29 01:28:07;;;;;;;;;;;17.10;85.60;;;;;;5061755;28;19998;-75
2023/08/29 01:30:35;;;;;;;;;;;17.10;85.60;;;;;;5061251;28;20002;-75
2023/08/29 01:33:01;;;;;;;;;;;17.10;85.60;;;;;;5061642;28;20066;-75
2023/08/29 01:35:28;;;;;;;;;;;17.10;85.60;;;;;;5059015;28;19976;-75
2023/08/29 01:37:55;;;;;;;;;;;17.00;85.60;;;;;;5058566;28;19987;-75
2023/08/29 01:40:21;;;;;;;;;;;17.10;85.70;;;;;;5054964;28;19975;-75
2023/08/29 01:42:48;;;;;;;;;;;17.10;85.80;;;;;;5062013;28;19999;-75
2023/08/29 01:45:16;;;;;;;;;;;17.10;85.80;;;;;;5056673;28;20770;-75
2023/08/29 01:47:43;;;;;;;;;;;17.10;85.90;;;;;;5060996;28;19999;-74
2023/08/29 01:50:10;;;;;;;;;;;17.10;85.90;;;;;;5059618;28;20449;-75
2023/08/29 01:52:36;;;;;;;;;;;17.00;85.80;;;;;;5057718;28;19983;-75
2023/08/29 01:55:03;;;;;;;;;;;17.00;85.80;;;;;;5056255;28;20018;-75
2023/08/29 01:57:31;;;;;;;;;;;17.00;85.90;;;;;;5062463;28;19995;-74
2023/08/29 01:59:58;;;;;;;;;;;17.00;86.00;;;;;;5057787;28;20062;-75
2023/08/29 02:02:26;;;;;;;;;;;17.00;85.90;;;;;;5053094;28;19999;-75
2023/08/29 02:04:53;;;;;;;;;;;17.10;86.10;;;;;;5060183;28;19987;-75
2023/08/29 02:07:19;;;;;;;;;;;17.00;86.20;;;;;;5061694;28;19996;-75
2023/08/29 02:09:46;;;;;;;;;;;17.00;86.20;;;;;;5060298;28;20854;-75
2023/08/29 02:12:13;;;;;;;;;;;17.00;86.20;;;;;;5055477;28;20361;-75
2023/08/29 02:14:39;;;;;;;;;;;17.00;86.10;;;;;;5058675;28;20678;-75
2023/08/29 02:17:06;;;;;;;;;;;17.00;86.10;;;;;;5061012;28;21931;-75
2023/08/29 02:19:33;;;;;;;;;;;17.00;86.10;;;;;;5061965;28;20538;-75
2023/08/29 02:22:00;;;;;;;;;;;17.00;86.10;;;;;;5061663;28;19988;-75
2023/08/29 02:24:27;;;;;;;;;;;17.00;86.20;;;;;;5058553;28;19982;-75
2023/08/29 02:26:54;;;;;;;;;;;16.90;86.20;;;;;;5063631;28;20002;-75
2023/08/29 02:29:20;;;;;;;;;;;16.90;86.50;;;;;;5057603;28;19979;-75
2023/08/29 02:31:47;;;;;;;;;;;16.90;86.70;;;;;;5058303;28;19995;-75
2023/08/29 02:34:13;;;;;;;;;;;16.90;86.80;;;;;;5062667;28;20375;-75
2023/08/29 02:36:41;;;;;;;;;;;16.90;86.70;;;;;;5062505;28;19995;-75
2023/08/29 02:39:08;;;;;;;;;;;16.90;86.70;;;;;;5063169;28;19971;-75
2023/08/29 02:41:35;;;;;;;;;;;16.90;86.60;;;;;;5060303;28;20103;-74
2023/08/29 02:44:01;;;;;;;;;;;16.90;86.60;;;;;;5062384;28;19972;-74
2023/08/29 02:46:28;;;;;;;;;;;16.90;86.60;;;;;;5063550;28;19995;-75
2023/08/29 02:48:54;;;;;;;;;;;16.90;86.60;;;;;;5061447;28;19983;-75
2023/08/29 02:51:21;;;;;;;;;;;16.90;86.60;;;;;;5056786;28;19975;-75
2023/08/29 02:53:48;;;;;;;;;;;16.90;86.60;;;;;;5055986;28;20010;-74
2023/08/29 02:56:15;;;;;;;;;;;16.90;86.60;;;;;;5057500;28;20487;-75
2023/08/29 02:58:42;;;;;;;;;;;16.80;86.40;;;;;;5060730;28;20632;-75
2023/08/29 03:01:11;;;;;;;;;;;16.80;86.40;;;;;;5058845;28;20091;-75
2023/08/29 03:03:38;;;;;;;;;;;16.80;86.50;;;;;;5056262;28;19991;-75
2023/08/29 03:06:04;;;;;;;;;;;16.90;86.50;;;;;;5054452;28;19982;-75
2023/08/29 03:08:31;;;;;;;;;;;16.80;86.50;;;;;;5061666;28;19983;-75
2023/08/29 03:11:03;;;;;;;;;;;16.80;86.40;;;;;;5057923;28;19975;-74
2023/08/29 03:13:30;;;;;;;;;;;16.90;86.50;;;;;;5058799;28;20037;-75
2023/08/29 03:15:57;;;;;;;;;;;16.80;86.50;;;;;;5058692;28;19995;-74
2023/08/29 03:18:24;;;;;;;;;;;16.80;86.50;;;;;;5056914;28;20357;-75
2023/08/29 03:20:51;;;;;;;;;;;16.80;86.50;;;;;;5060047;28;19975;-75
2023/08/29 03:23:17;;;;;;;;;;;16.80;86.50;;;;;;5051447;28;19991;-75
2023/08/29 03:25:44;;;;;;;;;;;16.80;86.50;;;;;;5060790;28;19980;-74
2023/08/29 03:28:12;;;;;;;;;;;16.80;86.50;;;;;;5056732;28;19996;-74
2023/08/29 03:30:38;;;;;;;;;;;16.70;86.50;;;;;;5056211;28;20392;-75
2023/08/29 03:33:05;;;;;;;;;;;16.80;86.50;;;;;;5056158;28;20452;-75
2023/08/29 03:35:31;;;;;;;;;;;16.80;86.50;;;;;;5055520;28;19982;-74
2023/08/29 03:37:59;;;;;;;;;;;16.70;86.50;;;;;;5059283;28;19996;-74
2023/08/29 03:40:25;;;;;;;;;;;16.80;86.60;;;;;;5059814;28;20000;-75
2023/08/29 03:42:52;;;;;;;;;;;16.80;86.60;;;;;;5060318;28;19995;-74
2023/08/29 03:45:20;;;;;;;;;;;16.70;86.50;;;;;;5059682;28;19986;-75
2023/08/29 03:47:48;;;;;;;;;;;16.70;86.50;;;;;;5058692;28;20003;-75
2023/08/29 03:50:14;;;;;;;;;;;16.70;86.50;;;;;;5058910;28;20062;-75
2023/08/29 03:52:41;;;;;;;;;;;16.70;86.60;;;;;;5056958;28;20484;-75
2023/08/29 03:55:08;;;;;;;;;;;16.70;86.60;;;;;;5062061;28;19987;-75
2023/08/29 03:57:34;;;;;;;;;;;16.70;86.60;;;;;;5060460;28;20006;-75
2023/08/29 04:00:06;;;;;;;;;;;16.70;86.60;;;;;;5061312;28;19990;-75
2023/08/29 04:02:34;;;;;;;;;;;16.70;86.60;;;;;;5059755;28;20000;-75
2023/08/29 04:05:10;;;;;;;;;;;16.70;86.60;;;;;;5056826;28;20417;-75
2023/08/29 04:07:37;;;;;;;;;;;16.70;86.60;;;;;;5060800;28;20569;-75
2023/08/29 04:10:04;;;;;;;;;;;16.70;86.60;;;;;;5059367;28;19987;-74
2023/08/29 04:12:30;;;;;;;;;;;16.70;86.60;;;;;;5060204;28;19976;-76
2023/08/29 04:14:57;;;;;;;;;;;16.70;86.60;;;;;;5054240;28;19982;-75
2023/08/29 04:17:23;;;;;;;;;;;16.70;86.60;;;;;;5059136;28;19995;-75
2023/08/29 04:19:51;;;;;;;;;;;16.70;86.70;;;;;;5061626;28;19976;-74
2023/08/29 04:22:18;;;;;;;;;;;16.60;86.20;;;;;;5059850;28;19998;-75
2023/08/29 04:24:45;;;;;;;;;;;16.60;86.60;;;;;;5059840;28;19979;-75
2023/08/29 04:27:12;;;;;;;;;;;16.70;86.60;;;;;;5057988;28;20015;-75
2023/08/29 04:29:38;;;;;;;;;;;16.70;86.60;;;;;;5060190;28;19987;-75
2023/08/29 04:32:05;;;;;;;;;;;16.60;86.60;;;;;;5056036;28;20504;-75
2023/08/29 04:34:32;;;;;;;;;;;16.60;86.60;;;;;;5061108;28;20361;-75
2023/08/29 04:37:00;;;;;;;;;;;16.60;86.70;;;;;;5061899;28;20007;-75
2023/08/29 04:39:26;;;;;;;;;;;16.60;86.70;;;;;;5062651;28;19982;-75
2023/08/29 04:41:53;;;;;;;;;;;16.60;87.50;;;;;;5062166;28;19983;-75
2023/08/29 04:44:19;;;;;;;;;;;16.60;86.70;;;;;;5051992;28;19978;-75
2023/08/29 04:46:46;;;;;;;;;;;16.60;86.60;;;;;;5062840;28;20003;-75
2023/08/29 04:49:12;;;;;;;;;;;16.60;86.70;;;;;;5056948;28;19975;-74
2023/08/29 04:51:40;;;;;;;;;;;16.60;86.70;;;;;;5062701;28;19991;-75
2023/08/29 04:54:08;;;;;;;;;;;16.60;86.70;;;;;;5061120;28;20072;-74
2023/08/29 04:56:35;;;;;;;;;;;16.50;86.80;;;;;;5062916;28;20002;-75
2023/08/29 04:59:01;;;;;;;;;;;16.50;86.80;;;;;;5057122;28;19987;-75
2023/08/29 05:01:28;;;;;;;;;;;16.50;86.80;;;;;;5060438;28;19994;-75
2023/08/29 05:03:54;;;;;;;;;;;16.50;87.60;;;;;;5061022;28;20006;-74
2023/08/29 05:06:21;;;;;;;;;;;16.50;86.90;;;;;;5062410;28;19998;-75
2023/08/29 05:08:47;;;;;;;;;;;16.50;86.90;;;;;;5059450;28;19980;-74
2023/08/29 05:11:15;;;;;;;;;;;16.50;86.80;;;;;;5057811;28;20361;-75
2023/08/29 05:13:42;;;;;;;;;;;16.50;86.90;;;;;;5058962;28;19976;-74
2023/08/29 05:16:08;;;;;;;;;;;16.50;86.90;;;;;;5056690;28;19991;-75
2023/08/29 05:18:35;;;;;;;;;;;16.50;86.90;;;;;;5060929;28;19979;-75
2023/08/29 05:21:01;;;;;;;;;;;16.50;87.10;;;;;;5056065;28;19975;-75
2023/08/29 05:23:28;;;;;;;;;;;16.50;87.10;;;;;;5055371;28;20073;-75
2023/08/29 05:25:54;;;;;;;;;;;16.50;87.00;;;;;;5054904;28;19979;-73
2023/08/29 05:28:28;;;;;;;;;;;16.50;87.10;;;;;;5064321;28;19980;-81
2023/08/29 05:30:54;;;;;;;;;;;16.50;87.10;;;;;;5061295;28;20002;-79
2023/08/29 05:33:21;;;;;;;;;;;16.50;87.10;;;;;;5066045;28;20007;-81
2023/08/29 05:35:47;;;;;;;;;;;16.50;87.20;;;;;;5060223;28;19972;-73
2023/08/29 05:38:14;;;;;;;;;;;16.50;87.20;;;;;;5057656;28;19995;-73
2023/08/29 05:40:41;;;;;;;;;;;16.50;87.10;;;;;;5064736;28;20034;-73
2023/08/29 05:43:07;;;;;;;;;;;16.50;87.20;;;;;;5063217;28;19999;-73
2023/08/29 05:45:35;;;;;;;;;;;16.40;87.20;;;;;;5064661;28;19995;-73
2023/08/29 05:48:03;;;;;;;;;;;16.50;87.20;;;;;;5064364;28;20002;-74
2023/08/29 05:50:29;;;;;;;;;;;16.40;87.20;;;;;;5064009;28;20404;-73
2023/08/29 05:52:56;;;;;;;;;;;16.40;87.20;;;;;;5058943;28;19975;-73
2023/08/29 05:55:23;;;;;;;;;;;16.40;87.20;;;;;;5065323;28;19976;-73
2023/08/29 05:57:49;;;;;;;;;;;16.40;87.20;;;;;;5061959;28;20043;-74
2023/08/29 06:00:16;;;;;;;;;;;16.40;87.30;;;;;;5064425;28;19998;-73
2023/08/29 06:02:44;;;;;;;;;;;16.40;87.30;;;;;;5060612;28;20440;-74
2023/08/29 06:05:11;;;;;;;;;;;16.40;87.30;;;;;;5059857;28;19976;-73
2023/08/29 06:07:39;;;;;;;;;;;16.40;87.30;;;;;;5062914;28;19995;-73
2023/08/29 06:10:06;;;;;;;;;;;16.30;87.30;;;;;;5062119;28;20006;-73
2023/08/29 06:12:32;;;;;;;;;;;16.40;87.30;;;;;;5057804;28;19982;-73
2023/08/29 06:14:59;;;;;;;;;;;16.40;87.30;;;;;;5059428;28;19976;-73
2023/08/29 06:17:25;;;;;;;;;;;16.40;87.40;;;;;;5062375;28;19996;-82
2023/08/29 06:19:53;;;;;;;;;;;16.40;87.30;;;;;;5061773;28;20658;-81
2023/08/29 06:22:21;;;;;;;;;;;16.40;87.40;;;;;;5067014;28;19982;-82
2023/08/29 06:24:47;;;;;;;;;;;16.40;87.40;;;;;;5063957;28;19991;-82
2023/08/29 06:27:14;;;;;;;;;;;16.40;87.40;;;;;;5062986;28;20006;-83
2023/08/29 06:29:41;;;;;;;;;;;16.30;87.40;;;;;;5062192;28;20356;-82
2023/08/29 06:32:07;;;;;;;;;;;16.40;87.40;;;;;;5060559;28;19999;-82
2023/08/29 06:34:34;;;;;;;;;;;16.40;87.40;;;;;;5060470;28;20481;-73
2023/08/29 06:37:02;;;;;;;;;;;16.40;87.40;;;;;;5056200;28;19998;-73
2023/08/29 06:39:29;;;;;;;;;;;16.40;87.50;;;;;;5057168;28;20028;-71
2023/08/29 06:41:55;;;;;;;;;;;16.40;87.60;;;;;;5060091;28;20078;-73
2023/08/29 06:44:22;;;;;;;;;;;16.40;87.50;;;;;;5056722;28;19992;-73
2023/08/29 06:46:49;;;;;;;;;;;16.40;87.50;;;;;;5059286;28;20605;-72
2023/08/29 06:49:15;;;;;;;;;;;16.40;87.60;;;;;;5060360;28;19984;-72
2023/08/29 06:51:42;;;;;;;;;;;16.40;87.60;;;;;;5058348;28;20015;-73
2023/08/29 06:54:10;;;;;;;;;;;16.40;87.50;;;;;;5063364;28;19975;-73
2023/08/29 06:56:36;;;;;;;;;;;16.40;87.60;;;;;;5063482;28;19992;-72
2023/08/29 06:59:03;;;;;;;;;;;16.40;87.70;;;;;;5062975;28;19986;-73
2023/08/29 07:01:30;;;;;;;;;;;16.40;87.70;;;;;;5059032;28;20110;-73
2023/08/29 07:03:57;;;;;;;;;;;16.40;87.70;;;;;;5057536;28;20337;-73
2023/08/29 07:06:23;;;;;;;;;;;16.40;87.70;;;;;;5059809;28;19988;-73
2023/08/29 07:08:50;;;;;;;;;;;16.40;87.70;;;;;;5058704;28;19983;-73
2023/08/29 07:11:18;;;;;;;;;;;16.40;87.70;;;;;;5064721;28;19987;-73
2023/08/29 07:13:44;;;;;;;;;;;16.40;87.90;;;;;;5060491;28;19986;-80
2023/08/29 07:16:11;;;;;;;;;;;16.40;87.80;;;;;;5058087;28;19975;-80
2023/08/29 07:18:37;;;;;;;;;;;16.40;87.80;;;;;;5059329;28;19987;-78
2023/08/29 07:21:04;;;;;;;;;;;16.50;87.90;;;;;;5059134;28;19975;-80
2023/08/29 07:23:30;;;;;;;;;;;16.50;87.90;;;;;;5056381;28;20342;-80
2023/08/29 07:25:57;;;;;;;;;;;16.50;87.90;;;;;;5060224;28;20460;-80
2023/08/29 07:28:25;;;;;;;;;;;16.50;88.00;;;;;;5060960;28;19975;-80
2023/08/29 07:30:51;;;;;;;;;;;16.50;87.90;;;;;;5060246;28;20556;-80
2023/08/29 07:33:18;;;;;;;;;;;16.50;87.90;;;;;;5058579;28;20019;-80
2023/08/29 07:35:46;;;;;;;;;;;16.50;87.90;;;;;;5055752;28;19990;-80
2023/08/29 07:38:13;;;;;;;;;;;16.50;88.00;;;;;;5055078;28;21371;-80
2023/08/29 07:40:39;;;;;;;;;;;16.50;88.00;;;;;;5060934;28;20456;-79
2023/08/29 07:43:07;;;;;;;;;;;16.50;87.90;;;;;;5051876;28;20572;-79
2023/08/29 07:45:35;;;;;;;;;;;16.60;88.00;;;;;;5056793;28;19995;-80
2023/08/29 07:48:03;;;;;;;;;;;16.60;88.00;;;;;;5058232;28;20057;-78
2023/08/29 07:50:29;;;;;;;;;;;16.60;88.00;;;;;;5060394;28;20448;-82
2023/08/29 07:52:57;;;;;;;;;;;16.60;88.00;;;;;;5061045;28;20380;-79
2023/08/29 07:55:23;;;;;;;;;;;16.60;87.90;;;;;;5058841;28;20105;-81
2023/08/29 07:57:50;;;;;;;;;;;16.60;87.90;;;;;;5060109;28;19995;-80
2023/08/29 08:00:17;;;;;;;;;;;16.60;87.90;;;;;;5059861;28;20052;-79
2023/08/29 08:02:45;;;;;;;;;;;16.60;87.80;;;;;;5060177;28;20468;-79
2023/08/29 08:05:13;;;;;;;;;;;16.70;87.80;;;;;;5060411;28;20445;-79
2023/08/29 08:07:40;;;;;;;;;;;16.70;87.70;;;;;;5059932;28;19995;-80
2023/08/29 08:10:07;;;;;;;;;;;16.70;87.70;;;;;;5055199;28;19975;-82
2023/08/29 08:12:34;;;;;;;;;;;16.70;87.60;;;;;;5059674;28;19976;-80
2023/08/29 08:15:00;;;;;;;;;;;16.70;87.60;;;;;;5058647;28;20003;-81
2023/08/29 08:17:27;;;;;;;;;;;16.80;87.50;;;;;;5059462;28;20041;-81
2023/08/29 08:19:55;;;;;;;;;;;16.80;87.50;;;;;;5059161;28;20627;-80
2023/08/29 08:22:22;;;;;;;;;;;16.80;87.40;;;;;;5059912;28;19975;-80
2023/08/29 08:24:49;;;;;;;;;;;16.70;87.40;;;;;;5057073;28;19996;-82
2023/08/29 08:27:16;;;;;;;;;;;16.80;87.40;;;;;;5058371;28;19991;-79
2023/08/29 08:29:43;;;;;;;;;;;16.80;87.30;;;;;;5059236;28;19979;-79
2023/08/29 08:32:09;;;;;;;;;;;16.80;87.30;;;;;;5056449;28;19991;-79
2023/08/29 08:34:36;;;;;;;;;;;16.80;87.30;;;;;;5061212;28;19976;-80
2023/08/29 08:37:04;;;;;;;;;;;16.80;87.30;;;;;;5061699;28;19999;-79
2023/08/29 08:39:31;;;;;;;;;;;16.90;87.20;;;;;;5060005;28;19975;-79
2023/08/29 08:41:58;;;;;;;;;;;16.90;87.20;;;;;;5062176;28;20025;-79
2023/08/29 08:44:25;;;;;;;;;;;16.90;87.10;;;;;;5055128;28;20484;-79
2023/08/29 08:46:52;;;;;;;;;;;16.90;87.00;;;;;;5061703;28;20006;-80
2023/08/29 08:49:19;;;;;;;;;;;16.90;87.10;;;;;;5060736;28;20344;-80
2023/08/29 08:51:46;;;;;;;;;;;16.90;87.00;;;;;;5062396;28;19984;-80
2023/08/29 08:54:14;;;;;;;;;;;16.90;87.00;;;;;;5060405;28;20018;-81
2023/08/29 08:56:41;;;;;;;;;;;16.90;87.00;;;;;;5057629;28;19995;-80
2023/08/29 08:59:08;;;;;;;;;;;16.90;87.00;;;;;;5063211;28;19987;-81
2023/08/29 09:01:34;;;;;;;;;;;16.90;87.00;;;;;;5056198;28;19991;-79
2023/08/29 09:04:01;;;;;;;;;;;17.00;87.00;;;;;;5059884;28;19996;-81
2023/08/29 09:06:27;;;;;;;;;;;17.00;87.00;;;;;;5067333;28;19998;-80
2023/08/29 09:08:56;;;;;;;;;;;17.00;87.10;;;;;;5062335;28;19975;-80
2023/08/29 09:11:24;;;;;;;;;;;17.00;86.90;;;;;;5063987;28;20023;-81
2023/08/29 09:13:51;;;;;;;;;;;17.00;86.80;;;;;;5061577;28;20062;-79
2023/08/29 09:16:18;;;;;;;;;;;17.00;86.70;;;;;;5068396;28;20003;-80
2023/08/29 09:18:44;;;;;;;;;;;17.00;86.80;;;;;;5074257;28;20437;-80
2023/08/29 09:21:17;;;;;;;;;;;17.00;86.90;;;;;;5072338;28;19972;-82
2023/08/29 09:23:44;;;;;;;;;;;17.10;86.80;;;;;;5073691;28;20002;-80
2023/08/29 09:26:11;;;;;;;;;;;17.10;86.60;;;;;;5065106;28;20326;-80
2023/08/29 09:28:39;;;;;;;;;;;17.10;86.50;;;;;;5067051;28;20499;-81
2023/08/29 09:31:07;;;;;;;;;;;17.10;86.30;;;;;;5066292;28;19999;-80
2023/08/29 09:33:34;;;;;;;;;;;17.10;86.30;;;;;;5066030;28;19988;-80
2023/08/29 09:36:01;;;;;;;;;;;17.10;86.50;;;;;;5065944;28;19982;-79
2023/08/29 09:38:28;;;;;;;;;;;17.20;86.70;;;;;;5068972;28;19979;-80
2023/08/29 09:40:55;;;;;;;;;;;17.10;86.40;;;;;;5070156;28;19975;-79
2023/08/29 09:43:22;;;;;;;;;;;17.20;86.60;;;;;;5060224;28;19975;-79
2023/08/29 09:45:50;;;;;;;;;;;17.20;86.60;;;;;;5066321;28;19991;-83
2023/08/29 09:48:17;;;;;;;;;;;17.20;86.70;;;;;;5061653;28;19999;-80
2023/08/29 09:50:44;;;;;;;;;;;17.30;86.60;;;;;;5060288;28;20025;-80
2023/08/29 09:53:14;;;;;;;;;;;17.30;86.60;;;;;;5062532;28;19978;-79
2023/08/29 09:55:43;;;;;;;;;;;17.30;86.70;;;;;;5063638;28;19986;-79
2023/08/29 09:58:10;;;;;;;;;;;17.30;86.70;;;;;;5060495;28;19999;-82
2023/08/29 10:00:40;;;;;;;;;;;17.30;86.80;;;;;;5059143;28;19999;-79
2023/08/29 10:03:09;;;;;;;;;;;17.40;86.80;;;;;;5062550;28;20403;-80
2023/08/29 10:05:36;;;;;;;;;;;17.40;86.50;;;;;;5066309;28;19999;-80
2023/08/29 10:08:06;;;;;;;;;;;17.40;86.40;;;;;;5064679;28;20369;-79
2023/08/29 10:10:34;;;;;;;;;;;17.40;86.30;;;;;;5063447;28;19982;-79
2023/08/29 10:13:01;;;;;;;;;;;17.40;86.30;;;;;;5066030;28;19975;-80
2023/08/29 10:15:28;;;;;;;;;;;17.50;86.30;;;;;;5061994;28;20006;-79
2023/08/29 10:17:55;;;;;;;;;;;17.50;86.20;;;;;;5059123;28;19997;-79
2023/08/29 10:20:23;;;;;;;;;;;17.50;86.40;;;;;;5062987;28;19979;-81
2023/08/29 10:22:51;;;;;;;;;;;17.60;86.50;;;;;;5059753;28;19979;-80
2023/08/29 10:25:20;;;;;;;;;;;17.60;86.20;;;;;;5062014;28;20002;-80
2023/08/29 10:27:47;;;;;;;;;;;17.60;86.10;;;;;;5062119;28;20434;-79
2023/08/29 10:30:14;;;;;;;;;;;17.60;86.00;;;;;;5060355;28;19975;-79
2023/08/29 10:32:42;;;;;;;;;;;17.70;86.20;;;;;;5058114;28;20529;-80
2023/08/29 10:35:15;;;;;;;;;;;17.70;85.90;;;;;;5059698;28;19987;-80
2023/08/29 10:37:43;;;;;;;;;;;17.70;85.80;;;;;;5058234;28;20477;-80
2023/08/29 10:40:11;;;;;;;;;;;17.80;85.70;;;;;;5055936;28;20003;-80
2023/08/29 10:42:53;;;;;;;;;;;17.80;85.70;;;;;;5058377;28;19979;-79
2023/08/29 10:45:20;;;;;;;;;;;17.80;85.50;;;;;;5050430;28;19996;-80
2023/08/29 10:47:47;;;;;;;;;;;17.80;85.60;;;;;;5062267;28;19999;-79
2023/08/29 10:50:17;;;;;;;;;;;17.90;85.60;;;;;;5063008;28;19979;-80
2023/08/29 10:52:46;;;;;;;;;;;17.90;85.50;;;;;;5059008;28;19987;-79
2023/08/29 10:55:21;;;;;;;;;;;17.90;85.50;;;;;;5057673;28;20023;-80
2023/08/29 10:57:47;;;;;;;;;;;18.00;85.80;;;;;;5057759;28;19999;-79
2023/08/29 11:00:15;;;;;;;;;;;18.00;85.50;;;;;;5059180;28;19975;-80
2023/08/29 11:02:43;;;;;;;;;;;18.00;85.60;;;;;;5060476;28;19986;-79
2023/08/29 11:05:10;;;;;;;;;;;18.00;85.40;;;;;;5060027;28;19999;-80
2023/08/29 11:07:38;;;;;;;;;;;18.10;85.60;;;;;;5055743;28;20350;-78
2023/08/29 11:10:16;;;;;;;;;;;18.10;85.70;;;;;;5058446;28;20512;-79
2023/08/29 11:13:01;;;;;;;;;;;18.10;85.60;;;;;;5059146;28;19979;-81
2023/08/29 11:15:43;;;;;;;;;;;18.10;85.10;;;;;;5051621;28;20002;-80
2023/08/29 11:18:19;;;;;;;;;;;18.10;85.10;;;;;;5056274;28;19995;-79
2023/08/29 11:20:46;;;;;;;;;;;18.20;85.60;;;;;;5058884;28;19979;-79
2023/08/29 11:23:13;;;;;;;;;;;18.20;84.80;;;;;;5057167;28;20018;-80
2023/08/29 11:25:42;;;;;;;;;;;18.20;84.50;;;;;;5057680;28;20644;-80
2023/08/29 11:28:08;;;;;;;;;;;18.20;84.30;;;;;;5058472;28;20049;-81
2023/08/29 11:30:35;;;;;;;;;;;18.30;84.50;;;;;;5059331;28;19995;-79
2023/08/29 11:33:03;;;;;;;;;;;18.30;84.50;;;;;;5056687;28;20414;-72
2023/08/29 11:35:32;;;;;;;;;;;18.30;84.10;;;;;;5060029;28;20716;-72
2023/08/29 11:37:58;;;;;;;;;;;18.30;84.10;;;;;;5062208;28;20765;-73
2023/08/29 11:40:27;;;;;;;;;;;18.30;84.20;;;;;;5055046;28;19987;-72
2023/08/29 11:42:55;;;;;;;;;;;18.40;84.00;;;;;;5061707;28;20138;-72
2023/08/29 11:45:21;;;;;;;;;;;18.40;84.00;;;;;;5061675;28;20101;-72
2023/08/29 11:47:49;;;;;;;;;;;18.50;83.70;;;;;;5058987;28;19998;-73
2023/08/29 11:50:16;;;;;;;;;;;18.50;83.30;;;;;;5060848;28;20010;-71
2023/08/29 11:52:42;;;;;;;;;;;18.50;83.20;;;;;;5059929;28;20021;-73
2023/08/29 11:55:11;;;;;;;;;;;18.60;83.00;;;;;;5059309;28;19998;-72
2023/08/29 11:57:38;;;;;;;;;;;18.70;83.00;;;;;;5063119;28;19995;-72
2023/08/29 12:00:08;;;;;;;;;;;18.70;82.50;;;;;;5061033;28;20095;-71
2023/08/29 12:02:34;;;;;;;;;;;18.80;82.00;;;;;;5056835;28;19999;-72
2023/08/29 12:05:03;;;;;;;;;;;18.80;82.10;;;;;;5059187;28;19995;-72
2023/08/29 12:07:31;;;;;;;;;;;18.90;81.50;;;;;;5060075;28;20685;-72
2023/08/29 12:10:06;;;;;;;;;;;19.00;81.60;;;;;;5057812;28;19979;-72
2023/08/29 12:12:34;;;;;;;;;;;19.10;81.50;;;;;;5058211;28;19979;-72
2023/08/29 12:15:01;;;;;;;;;;;19.20;81.40;;;;;;5059771;28;20387;-72
2023/08/29 12:17:38;;;;;;;;;;;19.20;81.20;;;;;;5058628;28;19999;-72
2023/08/29 12:20:22;;;;;;;;;;;19.30;81.20;;;;;;5062169;28;20066;-72
2023/08/29 12:22:49;;;;;;;;;;;19.30;80.80;;;;;;5058488;28;19990;-72
2023/08/29 12:25:16;;;;;;;;;;;19.40;80.50;;;;;;5057280;28;19996;-71
2023/08/29 12:27:44;;;;;;;;;;;19.40;80.20;;;;;;5063556;28;19995;-72
2023/08/29 12:30:14;;;;;;;;;;;19.50;80.50;;;;;;5062156;28;20527;-72
2023/08/29 12:32:43;;;;;;;;;;;19.50;80.00;;;;;;5060976;28;20496;-78
2023/08/29 12:35:10;;;;;;;;;;;19.50;79.10;;;;;;5056507;28;19971;-83
2023/08/29 12:37:36;;;;;;;;;;;19.50;79.30;;;;;;5059478;28;20332;-80
2023/08/29 12:40:04;;;;;;;;;;;19.50;79.80;;;;;;5063644;28;19979;-81
2023/08/29 12:42:31;;;;;;;;;;;19.70;74.80;;;;;;5061900;28;19976;-80
2023/08/29 12:44:57;;;;;;;;;;;19.80;75.60;;;;;;5066180;28;20737;-82
2023/08/29 12:47:24;;;;;;;;;;;19.90;76.00;;;;;;5066360;28;19995;-82
2023/08/29 12:49:52;;;;;;;;;;;20.00;76.20;;;;;;5065893;28;19975;-81
2023/08/29 12:52:19;;;;;;;;;;;20.10;75.80;;;;;;5065267;28;20007;-82
2023/08/29 12:54:45;;;;;;;;;;;20.20;75.40;;;;;;5065667;28;20022;-82
2023/08/29 12:57:12;;;;;;;;;;;20.20;75.10;;;;;;5066050;28;19998;-79
2023/08/29 12:59:38;;;;;;;;;;;20.30;75.00;;;;;;5063610;28;19987;-81
2023/08/29 13:02:05;;;;;;;;;;;20.30;75.10;;;;;;5064416;28;19991;-81
2023/08/29 13:04:32;;;;;;;;;;;20.40;75.20;;;;;;5061829;28;20047;-80
2023/08/29 13:07:00;;;;;;;;;;;20.40;75.40;;;;;;5062766;28;20046;-81
2023/08/29 13:09:26;;;;;;;;;;;20.50;75.50;;;;;;5066292;28;20487;-81
2023/08/29 13:11:53;;;;;;;;;;;20.50;75.60;;;;;;5065180;28;19982;-80
2023/08/29 13:14:19;;;;;;;;;;;20.50;76.40;;;;;;5064485;28;19982;-81
2023/08/29 13:16:46;;;;;;;;;;;20.50;75.50;;;;;;5061985;28;19995;-81
2023/08/29 13:19:12;;;;;;;;;;;20.60;75.60;;;;;;5063316;28;20010;-82
2023/08/29 13:21:39;;;;;;;;;;;20.60;75.00;;;;;;5068630;28;19979;-83
2023/08/29 13:24:07;;;;;;;;;;;20.60;75.00;;;;;;5064746;28;19975;-82
2023/08/29 13:26:34;;;;;;;;;;;20.60;75.10;;;;;;5065935;28;19999;-75
2023/08/29 13:29:01;;;;;;;;;;;20.70;75.30;;;;;;5057172;28;19976;-75
2023/08/29 13:31:27;;;;;;;;;;;20.70;75.20;;;;;;5063350;28;20001;-75
2023/08/29 13:33:55;;;;;;;;;;;20.70;75.10;;;;;;5065715;28;19979;-74
2023/08/29 13:36:21;;;;;;;;;;;20.70;75.10;;;;;;5059917;28;19998;-74
2023/08/29 13:38:48;;;;;;;;;;;20.70;75.20;;;;;;5060735;28;19980;-75
2023/08/29 13:41:16;;;;;;;;;;;20.80;75.00;;;;;;5063455;28;19982;-75
2023/08/29 13:43:42;;;;;;;;;;;20.80;75.00;;;;;;5061938;28;19975;-75
2023/08/29 13:46:09;;;;;;;;;;;20.80;74.80;;;;;;5059297;28;20090;-75
2023/08/29 13:48:35;;;;;;;;;;;20.80;74.40;;;;;;5060542;28;19971;-75
2023/08/29 13:51:03;;;;;;;;;;;20.90;74.30;;;;;;5064822;28;19975;-75
2023/08/29 13:53:29;;;;;;;;;;;20.90;74.30;;;;;;5059719;28;19979;-75
2023/08/29 13:55:56;;;;;;;;;;;20.90;74.20;;;;;;5064084;28;19975;-75
2023/08/29 13:58:23;;;;;;;;;;;21.00;74.00;;;;;;5063972;28;19983;-74
2023/08/29 14:00:50;;;;;;;;;;;21.00;73.90;;;;;;5062329;28;19999;-75
2023/08/29 14:03:17;;;;;;;;;;;21.10;73.70;;;;;;5065565;28;20001;-75
2023/08/29 14:05:46;;;;;;;;;;;21.10;73.50;;;;;;5060911;28;19988;-75
2023/08/29 14:08:13;;;;;;;;;;;21.10;73.60;;;;;;5062299;28;20096;-75
2023/08/29 14:10:39;;;;;;;;;;;21.20;73.80;;;;;;5062439;28;19981;-74
2023/08/29 14:13:06;;;;;;;;;;;21.20;74.00;;;;;;5064003;28;19971;-74
2023/08/29 14:15:34;;;;;;;;;;;21.20;73.80;;;;;;5057952;28;19993;-75
2023/08/29 14:18:00;;;;;;;;;;;21.20;74.00;;;;;;5059042;28;20002;-75